Etusivu
METAR-TAF:

METAR-TAF

Lentoasemat :

Burns, Oregon, Yhdysvallat

Leveyspiiri: 43-35-42N, Pituuspiiri: 118-57-23W, korkeus merenpinnasta: 1263 m

Tämänhetkinen sää

Tämä raportti tehtiin 39 minuuttia sitten, kello 19.53 UTC
Tuuli 7 kn etelästä
Lämpötila 26°C
Kosteus 14%
Ilmanpaine 1021 hPa
Näkyvyys: 16.1 km
selkeää

METAR: KBNO 141953Z AUTO 19007KT 10SM CLR 26/M04 A3015 RMK AO2 SLP180 T02561039

Aika: 13:32 (20:32 UTC)

Sääennuste

Tämä raportti tehtiin 3 tuntia ja 12 minuuttia sitten, kello 17.20 UTC
Ennuste voimassa 14. päivästä klo 18 UTC - 15. päivään klo 18 UTC
Tuuli 6 kn eri suunnista
Näkyvyys: 10 km
selkeää
From 14. päivästä klo 2300 UTC
Tuuli 10 kn lännestä/luoteesta
Näkyvyys: 10 km
selkeää
From 15. päivästä klo 0600 UTC
Tuuli 4 kn eri suunnista
Näkyvyys: 10 km
selkeää

TAF: KBNO 141720Z 1418/1518 VRB06KT P6SM SKC FM142300 29010KT P6SM SKC FM150600 VRB04KT P6SM SKC

Säähavainnot ja -ennusteet yli 4000 lentoasemalta (METAR- ja TAF-raportit).

Käytössä olevat sääasemat on merkitty karttaan keltaisilla ja punaisilla pisteillä.

Aseta hiiri pisteen päälle nähdäksesi sääaseman nimen.

Klikkaa sitten nähdäksesi säähavainnot ja -ennusteet.

Kartan vaihtaminen: klikkaa mustalla rastilla varustettuja vihreitä pisteitä, niin voit zoomata sisään; viivalla varustettua vihreää pistettä, niin voit zoomata ulos tai vihreitä nuolia, niin pääset viereisille kartoille.


METAR-TAF: